ΕΜΥ, Εθνική Μετεωρολογική Υπηρεσία - Δελτία Καιρού, Προγνώσεις

ΑΕΡΟΝΑΥΤΙΛΙΑ

GREEK AIRPORTS CODES

EUROPEAN AIRPORTS CODES

TAF LGAV 191100Z 1912/2012 04010KT 9999 FEW025 SCT070 BECMG 1913/1915 27010KT TEMPO 1912/1916 2000 TSRA FEW018CB BKN070 BECMG 1916/1918 VRB05KT=